Time;durP1;ratioP1;P1;durP2;ratioP2;P2;SDS_P1;SDS_P2;PMS_P1;PMS_P2;Temp;Humidity;BMP_temperature;BMP_pressure;BME280_temperature;BME280_humidity;BME280_pressure;Samples;Min_cycle;Max_cycle;Signal;HPM_P1;HPM_P2
2021/08/09 00:01:16;;;;;;;7.13;5.80;;;;;;;26.03;100.00;101060.00;5095730;28;20372;-70
2021/08/09 00:04:03;;;;;;;6.97;6.07;;;;;;;25.81;100.00;101057.19;5095031;28;20038;-70
2021/08/09 00:06:49;;;;;;;10.52;6.78;;;;;;;25.75;100.00;101057.63;5094979;28;20024;-70
2021/08/09 00:09:35;;;;;;;7.25;6.03;;;;;;;25.51;100.00;101063.00;5094795;28;20020;-70
2021/08/09 00:12:21;;;;;;;7.80;5.80;;;;;;;25.68;100.00;101048.34;5094500;28;20368;-70
2021/08/09 00:15:07;;;;;;;6.75;5.75;;;;;;;25.80;100.00;101061.69;5094385;28;20039;-70
2021/08/09 00:17:53;;;;;;;8.60;4.88;;;;;;;25.53;100.00;101049.47;5094661;28;20028;-70
2021/08/09 00:20:38;;;;;;;9.07;4.88;;;;;;;25.51;100.00;101056.81;5094874;28;20032;-70
2021/08/09 00:23:24;;;;;;;8.25;4.82;;;;;;;25.58;100.00;101055.34;5094370;28;20019;-70
2021/08/09 00:26:10;;;;;;;5.15;4.22;;;;;;;25.89;100.00;101055.66;5094548;28;20016;-70
2021/08/09 00:28:57;;;;;;;5.68;3.83;;;;;;;25.87;100.00;101054.91;5094415;28;20324;-70
2021/08/09 00:31:42;;;;;;;5.90;3.35;;;;;;;25.64;100.00;101047.69;5094777;28;20109;-70
2021/08/09 00:34:28;;;;;;;4.38;3.38;;;;;;;25.45;100.00;101050.06;5094476;28;20028;-70
2021/08/09 00:37:14;;;;;;;4.00;3.42;;;;;;;25.43;100.00;101051.16;5094232;28;20085;-70
2021/08/09 00:40:00;;;;;;;4.60;3.35;;;;;;;25.63;100.00;101053.22;5094384;28;20059;-70
2021/08/09 00:42:46;;;;;;;5.25;3.65;;;;;;;25.58;100.00;101040.13;5094718;28;20092;-70
2021/08/09 00:45:32;;;;;;;7.07;3.70;;;;;;;25.64;100.00;101044.19;5094104;28;20024;-70
2021/08/09 00:48:18;;;;;;;5.10;3.50;;;;;;;25.78;100.00;101039.50;5095112;28;20051;-69
2021/08/09 00:51:04;;;;;;;4.43;3.38;;;;;;;25.87;100.00;101043.28;5094671;28;20020;-70
2021/08/09 00:53:51;;;;;;;3.30;3.00;;;;;;;25.72;100.00;101045.31;5094040;28;20028;-70
2021/08/09 00:56:36;;;;;;;4.50;3.05;;;;;;;25.57;100.00;101043.78;5093578;28;20059;-70
2021/08/09 00:59:22;;;;;;;4.18;3.20;;;;;;;25.48;100.00;101049.81;5093893;28;20105;-70
2021/08/09 01:02:08;;;;;;;4.03;3.35;;;;;;;25.28;100.00;101042.38;5094490;28;20039;-69
2021/08/09 01:04:54;;;;;;;5.15;3.47;;;;;;;25.24;100.00;101040.00;5093388;28;20028;-70
2021/08/09 01:08:07;;;;;;;4.95;3.42;;;;;;;25.35;100.00;101040.13;5094077;28;20051;-70
2021/08/09 01:11:12;;;;;;;4.20;3.40;;;;;;;25.18;100.00;101046.66;5093320;28;20082;-70
2021/08/09 01:14:35;;;;;;;4.72;3.33;;;;;;;25.51;100.00;101043.38;5093942;28;20096;-70
2021/08/09 01:17:27;;;;;;;6.45;3.78;;;;;;;25.54;100.00;101044.00;5093680;28;20368;-70
2021/08/09 01:20:25;;;;;;;6.40;3.95;;;;;;;25.37;100.00;101047.09;5094432;28;20047;-71
2021/08/09 01:23:42;;;;;;;3.97;3.58;;;;;;;25.00;100.00;101047.97;5093718;28;20039;-70
2021/08/09 01:26:52;;;;;;;5.43;3.63;;;;;;;24.56;100.00;101042.22;5094203;28;20128;-70
2021/08/09 01:29:43;;;;;;;4.03;3.63;;;;;;;24.55;100.00;101051.19;5094037;28;20016;-70
2021/08/09 01:32:31;;;;;;;6.43;4.35;;;;;;;24.31;100.00;101050.22;5094066;28;20027;-70
2021/08/09 01:35:20;;;;;;;4.05;3.65;;;;;;;23.95;100.00;101051.88;5093724;28;20405;-70
2021/08/09 01:38:07;;;;;;;5.05;3.90;;;;;;;24.19;100.00;101059.09;5094008;28;20050;-70
2021/08/09 01:40:56;;;;;;;4.43;3.50;;;;;;;24.09;100.00;101057.16;5093813;28;20028;-70
2021/08/09 01:43:44;;;;;;;5.70;3.90;;;;;;;24.29;100.00;101062.88;5094124;28;20043;-70
2021/08/09 01:46:31;;;;;;;6.88;3.65;;;;;;;24.12;100.00;101064.97;5093545;28;20062;-70
2021/08/09 01:49:19;;;;;;;4.10;3.70;;;;;;;24.53;100.00;101074.56;5093432;28;20024;-71
2021/08/09 01:52:05;;;;;;;5.65;3.53;;;;;;;24.37;100.00;101073.06;5093691;28;20036;-70
2021/08/09 01:54:51;;;;;;;4.38;3.55;;;;;;;24.36;100.00;101069.53;5093613;28;20045;-70
2021/08/09 01:57:37;;;;;;;6.32;3.67;;;;;;;24.04;100.00;101070.88;5093961;28;20055;-69
2021/08/09 02:00:23;;;;;;;4.03;3.40;;;;;;;24.40;100.00;101067.50;5094044;28;20024;-70
2021/08/09 02:03:09;;;;;;;6.15;4.38;;;;;;;24.18;100.00;101069.94;5093752;28;20020;-70
2021/08/09 02:05:56;;;;;;;5.97;4.75;;;;;;;24.59;100.00;101066.09;5093178;28;20032;-71
2021/08/09 02:08:42;;;;;;;6.72;4.90;;;;;;;24.58;100.00;101066.19;5093103;28;20055;-70
2021/08/09 02:12:01;;;;;;;7.90;5.25;;;;;;;24.40;100.00;101070.16;5092710;28;20448;-69
2021/08/09 02:14:56;;;;;;;8.20;5.68;;;;;;;24.16;100.00;101071.84;5090159;28;20036;-69
2021/08/09 02:17:48;;;;;;;8.88;5.80;;;;;;;24.20;100.00;101082.25;5097437;28;20368;-69
2021/08/09 02:20:38;;;;;;;8.18;6.07;;;;;;;24.58;100.00;101088.50;5097592;28;20080;-70
2021/08/09 02:23:33;;;;;;;10.32;6.25;;;;;;;24.38;100.00;101083.66;5097535;28;20404;-70
2021/08/09 02:26:34;;;;;;;9.63;6.30;;;;;;;24.39;100.00;101076.50;5096588;28;20028;-69
2021/08/09 02:29:27;;;;;;;9.02;6.03;;;;;;;24.33;100.00;101082.25;5096730;28;20115;-69
2021/08/09 02:32:14;;;;;;;8.35;5.82;;;;;;;24.38;100.00;101085.47;5096357;28;20066;-69
2021/08/09 02:35:01;;;;;;;8.85;5.75;;;;;;;24.11;100.00;101088.22;5096023;28;20383;-69
2021/08/09 02:37:49;;;;;;;7.15;6.20;;;;;;;24.14;100.00;101089.84;5096348;28;20093;-69
2021/08/09 02:40:35;;;;;;;8.98;5.50;;;;;;;24.44;100.00;101087.75;5095878;28;20020;-70
2021/08/09 02:43:22;;;;;;;9.45;5.90;;;;;;;24.10;100.00;101091.84;5096515;28;20039;-70
2021/08/09 02:46:08;;;;;;;8.43;5.30;;;;;;;24.32;100.00;101086.78;5096405;28;20089;-69
2021/08/09 02:48:54;;;;;;;8.15;5.60;;;;;;;24.36;100.00;101090.97;5096923;28;20031;-69
2021/08/09 02:51:40;;;;;;;11.23;5.75;;;;;;;24.29;100.00;101086.09;5095689;28;20386;-69
2021/08/09 02:54:27;;;;;;;8.27;6.22;;;;;;;24.16;100.00;101095.94;5096882;28;20056;-69
2021/08/09 02:57:18;;;;;;;9.50;5.63;;;;;;;24.33;100.00;101098.31;5096549;28;20035;-69
2021/08/09 03:00:05;;;;;;;8.95;5.53;;;;;;;24.57;100.00;101102.00;5096238;28;20020;-69
2021/08/09 03:02:52;;;;;;;9.50;5.93;;;;;;;24.45;100.00;101097.50;5096422;28;20028;-69
2021/08/09 03:05:41;;;;;;;9.40;5.70;;;;;;;24.43;100.00;101094.91;5096169;28;20057;-69
2021/08/09 03:08:28;;;;;;;9.98;5.95;;;;;;;24.33;100.00;101099.19;5096124;28;20012;-69
2021/08/09 03:11:14;;;;;;;11.27;6.32;;;;;;;24.13;100.00;101101.50;5095743;28;20028;-69
2021/08/09 03:14:00;;;;;;;10.07;5.80;;;;;;;24.24;100.00;101109.66;5096518;28;20024;-68
2021/08/09 03:16:48;;;;;;;10.30;6.22;;;;;;;24.12;100.00;101106.00;5095866;28;20032;-69
2021/08/09 03:19:33;;;;;;;9.95;6.40;;;;;;;24.09;100.00;101108.88;5095849;28;20157;-69
2021/08/09 03:22:19;;;;;;;9.30;6.07;;;;;;;24.07;100.00;101108.13;5095808;28;20024;-69
2021/08/09 03:25:06;;;;;;;9.55;6.32;;;;;;;24.36;100.00;101111.53;5095712;28;20522;-69
2021/08/09 03:27:51;;;;;;;12.70;6.88;;;;;;;24.40;100.00;101113.91;5095883;28;20035;-69
2021/08/09 03:30:37;;;;;;;10.07;6.43;;;;;;;24.01;100.00;101118.38;5096109;28;20315;-69
2021/08/09 03:33:23;;;;;;;10.20;6.82;;;;;;;23.95;100.00;101108.09;5095380;28;20024;-69
2021/08/09 03:36:08;;;;;;;9.60;6.57;;;;;;;23.67;100.00;101117.06;5094924;28;20027;-69
2021/08/09 03:38:54;;;;;;;9.52;6.07;;;;;;;23.93;100.00;101110.00;5096052;28;20108;-69
2021/08/09 03:41:40;;;;;;;10.73;7.10;;;;;;;23.84;100.00;101111.44;5095573;28;20024;-70
2021/08/09 03:44:26;;;;;;;11.32;6.25;;;;;;;23.90;100.00;101103.00;5096175;28;20055;-70
2021/08/09 03:47:11;;;;;;;9.45;5.50;;;;;;;24.08;100.00;101119.69;5094968;28;20028;-70
2021/08/09 03:49:57;;;;;;;11.82;5.78;;;;;;;23.99;100.00;101123.84;5096154;28;20161;-69
2021/08/09 03:52:54;;;;;;;11.27;5.85;;;;;;;23.97;100.00;101128.44;5095477;28;20039;-70
2021/08/09 03:55:39;;;;;;;9.88;5.65;;;;;;;24.14;100.00;101130.00;5096047;28;20048;-70
2021/08/09 03:58:25;;;;;;;6.82;5.38;;;;;;;24.12;100.00;101134.59;5095487;28;20032;-69
2021/08/09 04:01:11;;;;;;;6.95;5.47;;;;;;;23.93;100.00;101136.75;5095572;28;20471;-69
2021/08/09 04:03:57;;;;;;;8.95;5.35;;;;;;;24.23;100.00;101132.06;5095324;28;20364;-71
2021/08/09 04:06:43;;;;;;;17.40;5.82;;;;;;;24.48;100.00;101138.34;5095991;28;20048;-72
2021/08/09 04:09:29;;;;;;;8.90;4.85;;;;;;;24.40;100.00;101137.13;5095493;28;20028;-71
2021/08/09 04:12:15;;;;;;;9.48;5.30;;;;;;;24.23;100.00;101127.56;5095366;28;20024;-71
2021/08/09 04:15:00;;;;;;;7.82;4.60;;;;;;;24.15;100.00;101137.06;5094342;28;20028;-71
2021/08/09 04:17:46;;;;;;;8.80;5.03;;;;;;;24.39;100.00;101148.81;5094507;28;20410;-71
2021/08/09 04:20:32;;;;;;;8.75;5.25;;;;;;;24.59;100.00;101148.34;5095107;28;20039;-71
2021/08/09 04:23:18;;;;;;;14.27;5.50;;;;;;;24.46;100.00;101156.34;5094467;28;20028;-71
2021/08/09 04:26:04;;;;;;;9.00;5.55;;;;;;;24.72;100.00;101149.22;5094725;28;20028;-71
2021/08/09 04:28:50;;;;;;;8.50;4.60;;;;;;;24.52;100.00;101141.66;5093822;28;20529;-71
2021/08/09 04:31:41;;;;;;;5.63;4.70;;;;;;;24.86;100.00;101141.94;5094862;28;20403;-71
2021/08/09 04:34:27;;;;;;;8.88;4.90;;;;;;;24.96;100.00;101140.34;5094408;28;20046;-71
2021/08/09 04:37:12;;;;;;;6.97;5.43;;;;;;;25.06;100.00;101149.44;5094507;28;20043;-71
2021/08/09 04:39:58;;;;;;;8.13;4.72;;;;;;;24.80;100.00;101149.56;5094313;28;20034;-72
2021/08/09 04:42:44;;;;;;;7.05;4.78;;;;;;;24.97;100.00;101143.88;5094504;28;20111;-71
2021/08/09 04:45:30;;;;;;;7.57;4.93;;;;;;;25.05;100.00;101155.78;5094254;28;20032;-71
2021/08/09 04:48:15;;;;;;;7.82;4.85;;;;;;;25.38;100.00;101161.47;5094553;28;20020;-71
2021/08/09 04:51:01;;;;;;;6.63;4.38;;;;;;;25.42;100.00;101162.97;5094160;28;20093;-72
2021/08/09 04:53:47;;;;;;;6.32;4.45;;;;;;;25.39;100.00;101165.03;5093626;28;20504;-71
2021/08/09 04:56:33;;;;;;;7.43;4.30;;;;;;;25.16;100.00;101171.97;5094388;28;20128;-71
2021/08/09 04:59:20;;;;;;;7.55;4.60;;;;;;;24.97;100.00;101173.38;5093610;28;20059;-71
2021/08/09 05:02:05;;;;;;;5.85;4.18;;;;;;;25.32;100.00;101175.31;5094570;28;20452;-71
2021/08/09 05:04:51;;;;;;;6.45;5.07;;;;;;;25.40;100.00;101175.63;5093931;28;20028;-72
2021/08/09 05:07:37;;;;;;;8.10;4.60;;;;;;;25.40;100.00;101180.97;5094188;28;20016;-71
2021/08/09 05:10:23;;;;;;;5.32;4.78;;;;;;;25.42;100.00;101179.06;5094083;28;20452;-72
2021/08/09 05:13:09;;;;;;;6.60;5.03;;;;;;;25.98;100.00;101175.84;5094224;28;20444;-72
2021/08/09 05:15:55;;;;;;;9.65;4.20;;;;;;;26.21;100.00;101168.75;5094187;28;20047;-72
2021/08/09 05:18:41;;;;;;;6.88;4.70;;;;;;;25.92;100.00;101167.34;5094053;28;20433;-72
2021/08/09 05:21:27;;;;;;;11.82;4.70;;;;;;;25.87;100.00;101172.19;5094524;28;20089;-72
2021/08/09 05:24:12;;;;;;;6.82;5.05;;;;;;;26.16;100.00;101174.47;5094106;28;20456;-72
2021/08/09 05:26:58;;;;;;;7.82;4.80;;;;;;;26.40;100.00;101175.31;5093812;28;20024;-72
2021/08/09 05:29:44;;;;;;;8.00;5.40;;;;;;;25.88;100.00;101182.81;5093958;28;20024;-72
2021/08/09 05:32:30;;;;;;;9.55;4.90;;;;;;;26.31;100.00;101177.81;5094012;28;20386;-72
2021/08/09 05:35:16;;;;;;;8.63;4.75;;;;;;;26.58;100.00;101179.34;5093393;28;20023;-71
2021/08/09 05:38:03;;;;;;;13.77;5.93;;;;;;;26.60;100.00;101184.59;5093341;28;20028;-69
2021/08/09 05:40:48;;;;;;;8.13;5.00;;;;;;;26.94;100.00;101191.75;5093631;28;20106;-68
2021/08/09 05:43:34;;;;;;;5.97;4.50;;;;;;;26.94;100.00;101197.16;5093711;28;20028;-70
2021/08/09 05:46:20;;;;;;;7.53;4.63;;;;;;;26.60;100.00;101198.03;5093810;28;20020;-69
2021/08/09 05:49:06;;;;;;;5.00;4.38;;;;;;;26.86;100.00;101194.19;5093883;28;20039;-70
2021/08/09 05:51:51;;;;;;;7.50;4.90;;;;;;;26.67;100.00;101193.88;5098361;28;20031;-72
2021/08/09 05:54:37;;;;;;;8.48;4.80;;;;;;;26.93;100.00;101182.81;5097405;28;20063;-72
2021/08/09 05:57:23;;;;;;;10.07;5.35;;;;;;;27.25;100.00;101177.66;5097717;28;20340;-73
2021/08/09 06:00:10;;;;;;;6.50;4.90;;;;;;;27.17;100.00;101175.53;5097999;28;20032;-73
2021/08/09 06:02:55;;;;;;;10.27;4.85;;;;;;;27.52;98.57;101178.13;5098575;28;20027;-72
2021/08/09 06:05:41;;;;;;;10.73;4.63;;;;;;;27.63;99.89;101174.56;5098411;28;20028;-72
2021/08/09 06:08:27;;;;;;;8.90;4.38;;;;;;;27.69;100.00;101177.66;5097356;28;20074;-72
2021/08/09 06:11:13;;;;;;;10.68;4.63;;;;;;;27.42;100.00;101177.16;5097790;28;20114;-72
2021/08/09 06:13:59;;;;;;;7.45;4.72;;;;;;;27.44;100.00;101178.75;5097568;28;20107;-72
2021/08/09 06:16:44;;;;;;;6.95;4.65;;;;;;;27.64;100.00;101171.75;5095686;28;20443;-73
2021/08/09 06:19:31;;;;;;;10.95;5.00;;;;;;;27.65;100.00;101178.88;5097484;28;20479;-72
2021/08/09 06:22:17;;;;;;;9.80;4.47;;;;;;;27.76;98.86;101186.09;5096626;28;20032;-71
2021/08/09 06:25:03;;;;;;;10.40;4.53;;;;;;;27.83;97.02;101190.88;5097142;28;20028;-72
2021/08/09 06:27:50;;;;;;;11.02;4.90;;;;;;;28.27;95.26;101193.44;5096518;28;20020;-72
2021/08/09 06:30:36;;;;;;;11.40;4.80;;;;;;;28.44;93.74;101189.41;5098850;28;20065;-71
2021/08/09 06:33:24;;;;;;;8.15;4.55;;;;;;;28.76;91.12;101199.16;5099704;28;20044;-73
2021/08/09 06:36:10;;;;;;;9.35;4.50;;;;;;;28.88;89.79;101199.94;5097986;28;20038;-71
2021/08/09 06:38:56;;;;;;;8.38;4.85;;;;;;;28.40;90.40;101191.44;5097695;28;20165;-72
2021/08/09 06:41:42;;;;;;;11.68;4.90;;;;;;;28.69;91.87;101183.63;5097621;28;20024;-71
2021/08/09 06:44:39;;;;;;;8.05;4.72;;;;;;;28.55;88.94;101189.31;5098722;28;20024;-69
2021/08/09 06:47:26;;;;;;;7.05;4.43;;;;;;;29.32;85.42;101186.16;5099116;28;20434;-70
2021/08/09 06:50:15;;;;;;;11.40;6.90;;;;;;;29.11;100.00;101194.31;5099723;28;20418;-70
2021/08/09 06:53:01;;;;;;;13.65;6.55;;;;;;;29.27;100.00;101196.53;5097751;28;20436;-73
2021/08/09 06:55:46;;;;;;;12.93;6.47;;;;;;;29.25;100.00;101193.13;5096187;28;20062;-72
2021/08/09 06:58:32;;;;;;;19.02;6.97;;;;;;;29.42;100.00;101189.78;5096153;28;20032;-72
2021/08/09 07:01:18;;;;;;;19.30;7.50;;;;;;;29.40;100.00;101192.63;5095477;28;20027;-72
2021/08/09 07:04:03;;;;;;;8.98;6.45;;;;;;;29.38;100.00;101191.03;5095959;28;20461;-72
2021/08/09 07:07:17;;;;;;;14.70;7.03;;;;;;;29.27;100.00;101193.81;5096926;28;20028;-74
2021/08/09 07:10:03;;;;;;;13.02;7.07;;;;;;;29.53;100.00;101198.63;5097439;28;20368;-70
2021/08/09 07:12:49;;;;;;;25.65;8.02;;;;;;;29.29;100.00;101194.56;5098896;28;20057;-73
2021/08/09 07:15:35;;;;;;;17.05;6.95;;;;;;;29.58;100.00;101191.00;5096986;28;20042;-72
2021/08/09 07:18:22;;;;;;;13.68;7.10;;;;;;;29.52;100.00;101193.34;5098361;28;20028;-73
2021/08/09 07:21:12;;;;;;;15.32;6.68;;;;;;;29.42;100.00;101190.66;5102524;28;20024;-72
2021/08/09 07:23:58;;;;;;;16.70;6.57;;;;;;;29.81;100.00;101189.81;5098056;28;20109;-70
2021/08/09 07:27:02;;;;;;;11.57;6.57;;;;;;;29.98;100.00;101188.28;5098489;28;20032;-71
2021/08/09 07:29:50;;;;;;;14.80;6.28;;;;;;;30.08;98.97;101191.84;5096739;28;20294;-73
2021/08/09 07:32:37;;;;;;;12.65;6.20;;;;;;;30.02;96.73;101200.53;5096849;28;20028;-70
2021/08/09 07:35:24;;;;;;;10.60;6.20;;;;;;;30.21;95.40;101198.75;5097830;28;20092;-71
2021/08/09 07:38:10;;;;;;;11.02;6.47;;;;;;;30.43;93.05;101195.78;5096476;28;20116;-72
2021/08/09 07:40:55;;;;;;;10.63;6.65;;;;;;;30.64;90.16;101204.59;5096058;28;20372;-70
2021/08/09 07:43:41;;;;;;;12.65;6.13;;;;;;;30.74;91.34;101199.22;5095408;28;20047;-70
2021/08/09 07:46:27;;;;;;;15.48;6.78;;;;;;;30.58;89.07;101201.63;5095408;28;20051;-70
2021/08/09 07:49:13;;;;;;;11.23;6.30;;;;;;;30.88;87.49;101199.63;5095705;28;20289;-70
2021/08/09 07:51:59;;;;;;;13.55;6.82;;;;;;;31.28;84.25;101205.72;5095248;28;20356;-72
2021/08/09 07:54:45;;;;;;;12.88;6.60;;;;;;;31.67;82.52;101210.97;5095435;28;20052;-72
2021/08/09 07:57:30;;;;;;;14.65;6.30;;;;;;;32.10;79.25;101213.91;5095716;28;20020;-69
2021/08/09 08:00:19;;;;;;;14.60;6.35;;;;;;;32.33;75.56;101218.75;5095834;28;20444;-70
2021/08/09 08:03:06;;;;;;;11.82;6.55;;;;;;;32.26;73.76;101217.63;5095003;28;20062;-69
2021/08/09 08:05:52;;;;;;;13.52;6.78;;;;;;;32.31;72.96;101204.50;5095078;28;20031;-70
2021/08/09 08:08:44;;;;;;;10.18;5.60;;;;;;;32.36;70.44;101214.88;5095527;28;20317;-70
2021/08/09 08:11:32;;;;;;;10.23;5.95;;;;;;;33.25;67.14;101212.78;5095220;28;20059;-73
2021/08/09 08:14:21;;;;;;;14.07;5.72;;;;;;;33.26;64.17;101210.94;5094329;28;20039;-72
2021/08/09 08:17:07;;;;;;;10.18;5.45;;;;;;;33.12;65.27;101208.78;5094680;28;20463;-72
2021/08/09 08:19:53;;;;;;;13.48;6.40;;;;;;;33.48;64.36;101211.28;5095634;28;20051;-73
2021/08/09 08:22:39;;;;;;;12.23;5.53;;;;;;;34.11;59.94;101203.56;5094609;28;20021;-73
2021/08/09 08:25:25;;;;;;;10.90;5.90;;;;;;;34.08;59.42;101203.91;5096004;28;20055;-72
2021/08/09 08:28:26;;;;;;;10.00;5.30;;;;;;;34.62;57.29;101206.03;5094700;28;20039;-72
2021/08/09 08:31:12;;;;;;;11.20;4.97;;;;;;;34.83;52.90;101207.28;5095138;28;20106;-72
2021/08/09 08:33:58;;;;;;;8.90;4.90;;;;;;;34.37;53.77;101215.22;5095006;28;20031;-72
2021/08/09 08:36:44;;;;;;;7.20;4.90;;;;;;;34.81;53.29;101212.06;5095356;28;20023;-70
2021/08/09 08:39:30;;;;;;;10.50;5.88;;;;;;;34.77;54.26;101212.53;5094799;28;20096;-72
2021/08/09 08:42:18;;;;;;;8.70;4.90;;;;;;;35.27;51.79;101215.91;5094618;28;20452;-72
2021/08/09 08:45:04;;;;;;;11.77;4.47;;;;;;;35.18;48.74;101214.22;5094171;28;20020;-72
2021/08/09 08:47:50;;;;;;;7.38;4.32;;;;;;;35.43;49.35;101218.63;5094578;28;20024;-72
2021/08/09 08:50:36;;;;;;;9.40;4.10;;;;;;;35.58;48.02;101218.75;5094507;28;20035;-73
2021/08/09 08:53:22;;;;;;;7.38;3.90;;;;;;;35.29;47.71;101218.50;5094508;28;20032;-73
2021/08/09 08:56:08;;;;;;;7.30;4.20;;;;;;;35.58;47.58;101222.34;5094078;28;20187;-73
2021/08/09 08:58:54;;;;;;;7.60;4.10;;;;;;;35.52;46.31;101223.06;5094996;28;20028;-73
2021/08/09 09:01:42;;;;;;;8.57;4.45;;;;;;;34.94;46.81;101223.28;5094040;28;20028;-71
2021/08/09 09:04:33;;;;;;;7.32;4.90;;;;;;;35.25;46.45;101221.53;5093534;28;20109;-71
2021/08/09 09:07:28;;;;;;;7.53;4.20;;;;;;;35.63;45.31;101225.38;5094368;28;20055;-71
2021/08/09 09:10:28;;;;;;;7.65;3.60;;;;;;;35.54;43.90;101220.97;5094347;28;20016;-70
2021/08/09 09:13:16;;;;;;;8.48;4.20;;;;;;;36.24;44.24;101214.56;5094554;28;20024;-70
2021/08/09 09:16:05;;;;;;;8.10;3.83;;;;;;;35.95;42.92;101222.56;5093813;28;20039;-71
2021/08/09 09:18:57;;;;;;;4.85;3.78;;;;;;;36.07;43.45;101223.84;5094091;28;20032;-70
2021/08/09 09:21:42;;;;;;;6.00;3.88;;;;;;;36.39;43.06;101209.22;5093871;28;20507;-70
2021/08/09 09:24:32;;;;;;;7.35;4.38;;;;;;;36.22;41.82;101207.56;5095510;28;20093;-71
2021/08/09 09:28:19;;;;;;;4.07;3.47;;;;;;;35.85;39.45;101208.28;5100073;28;20044;-72
2021/08/09 09:31:12;;;;;;;6.55;3.55;;;;;;;36.46;39.87;101205.56;5037128;28;20037;-70
2021/08/09 09:34:03;;;;;;;4.13;3.60;;;;;;;35.84;40.20;101208.47;5022517;28;20453;-70
2021/08/09 09:36:50;;;;;;;5.00;3.20;;;;;;;35.81;39.61;101209.66;5097154;28;20039;-70
2021/08/09 09:39:38;;;;;;;5.10;3.38;;;;;;;35.96;39.03;101207.88;5098529;28;20039;-72
2021/08/09 09:42:33;;;;;;;4.18;3.55;;;;;;;35.38;39.84;101204.66;5098276;28;20035;-72
2021/08/09 09:45:29;;;;;;;4.60;3.35;;;;;;;35.62;37.65;101199.13;5098242;28;20024;-72
2021/08/09 09:48:14;;;;;;;6.65;3.72;;;;;;;35.75;37.80;101198.59;5097878;28;20078;-72
2021/08/09 09:51:10;;;;;;;12.25;6.18;;;;;;;35.91;37.04;101198.56;5097694;28;20032;-72
2021/08/09 09:54:08;;;;;;;5.60;3.10;;;;;;;35.39;35.73;101197.34;5097782;28;20031;-73
2021/08/09 09:56:54;;;;;;;5.68;4.22;;;;;;;35.86;35.38;101190.03;5097829;28;20036;-71
2021/08/09 09:59:40;;;;;;;6.53;3.97;;;;;;;36.12;33.84;101201.50;5097821;28;20096;-70
2021/08/09 10:02:26;;;;;;;4.25;3.30;;;;;;;36.29;32.47;101190.34;5098493;28;20028;-71
2021/08/09 10:05:16;;;;;;;6.55;3.30;;;;;;;35.69;32.56;101197.41;5097628;28;20032;-71
2021/08/09 10:08:03;;;;;;;4.78;3.40;;;;;;;35.68;32.64;101190.28;5097708;28;20036;-70
2021/08/09 10:10:51;;;;;;;3.97;3.20;;;;;;;35.65;32.79;101189.75;5097333;28;20032;-71
2021/08/09 10:13:39;;;;;;;4.68;3.97;;;;;;;35.89;33.12;101192.41;5097898;28;20051;-71
2021/08/09 10:16:35;;;;;;;4.93;3.28;;;;;;;35.80;33.09;101201.66;5097226;28;20127;-71
2021/08/09 10:19:21;;;;;;;3.97;3.25;;;;;;;35.83;34.06;101199.41;5097276;28;20043;-70
2021/08/09 10:22:07;;;;;;;4.50;3.50;;;;;;;36.10;34.40;101188.03;5096941;28;20028;-70
2021/08/09 10:24:54;;;;;;;4.28;3.15;;;;;;;35.97;33.62;101182.31;5097464;28;20034;-72
2021/08/09 10:27:46;;;;;;;3.83;3.30;;;;;;;35.89;33.36;101179.63;5096992;28;20126;-70
2021/08/09 10:30:34;;;;;;;4.88;3.33;;;;;;;36.19;32.64;101178.75;5097168;28;20111;-70
2021/08/09 10:33:47;;;;;;;4.10;3.05;;;;;;;35.96;32.17;101169.69;5096916;28;20024;-69
2021/08/09 10:37:08;;;;;;;3.45;2.90;;;;;;;36.04;32.94;101177.81;5095759;28;20065;-71
2021/08/09 10:40:03;;;;;;;8.05;2.90;;;;;;;35.79;32.25;101180.88;5097095;28;20104;-71
2021/08/09 10:42:58;;;;;;;4.60;3.30;;;;;;;36.13;31.84;101182.22;5097722;28;20028;-70
2021/08/09 10:45:47;;;;;;;4.43;2.80;;;;;;;35.81;31.71;101187.00;5096482;28;20027;-71
2021/08/09 10:48:53;;;;;;;4.78;3.03;;;;;;;35.86;31.61;101179.97;5095516;28;20437;-70
2021/08/09 10:51:54;;;;;;;5.72;3.28;;;;;;;36.14;31.71;101174.88;5096885;28;20043;-70
2021/08/09 10:54:40;;;;;;;3.42;3.08;;;;;;;35.84;30.96;101165.69;5096617;28;20486;-70
2021/08/09 10:57:42;;;;;;;3.72;2.72;;;;;;;36.41;30.95;101167.03;5094775;28;20039;-71
2021/08/09 11:00:42;;;;;;;5.95;3.15;;;;;;;36.74;31.29;101165.75;5096384;28;20040;-70
2021/08/09 11:03:28;;;;;;;5.53;2.90;;;;;;;36.98;30.69;101162.81;5096337;28;20036;-70
2021/08/09 11:06:52;;;;;;;4.03;3.30;;;;;;;36.83;30.17;101169.25;5096369;28;20024;-70
2021/08/09 11:09:41;;;;;;;3.97;3.00;;;;;;;36.96;29.98;101159.41;5095890;28;20020;-70
2021/08/09 11:12:28;;;;;;;4.75;3.20;;;;;;;37.57;30.29;101160.97;5095944;28;20066;-69
2021/08/09 11:15:14;;;;;;;4.50;3.10;;;;;;;37.39;29.72;101158.63;5096371;28;20119;-70
2021/08/09 11:18:00;;;;;;;3.53;3.08;;;;;;;37.57;29.13;101163.69;5096383;28;20480;-71
2021/08/09 11:20:46;;;;;;;5.00;3.50;;;;;;;37.36;29.72;101156.25;5096466;28;20036;-71
2021/08/09 11:23:40;;;;;;;4.20;3.72;;;;;;;37.37;29.91;101146.16;5096120;28;20020;-71
2021/08/09 11:26:28;;;;;;;5.15;3.47;;;;;;;37.27;30.31;101151.91;5096518;28;20049;-70
2021/08/09 11:29:14;;;;;;;4.28;3.88;;;;;;;37.82;29.88;101148.69;5096331;28;20097;-71
2021/08/09 11:32:00;;;;;;;7.63;4.13;;;;;;;36.86;30.28;101150.63;5096070;28;20094;-71
2021/08/09 11:35:02;;;;;;;4.45;4.05;;;;;;;37.57;29.88;101153.59;5095633;28;20440;-71
2021/08/09 11:37:55;;;;;;;7.78;3.80;;;;;;;37.74;29.79;101148.78;5095998;28;20028;-71
2021/08/09 11:40:46;;;;;;;5.78;3.30;;;;;;;37.69;30.06;101154.81;5095429;28;20059;-71
2021/08/09 11:43:34;;;;;;;7.68;3.33;;;;;;;37.10;30.04;101144.06;5095643;28;20459;-70
2021/08/09 11:46:19;;;;;;;6.63;3.50;;;;;;;37.25;29.60;101139.47;5094834;28;20082;-71
2021/08/09 11:49:08;;;;;;;6.82;3.60;;;;;;;37.93;29.93;101137.25;5095947;28;20092;-70
2021/08/09 11:51:58;;;;;;;7.97;3.30;;;;;;;37.78;29.70;101128.22;5094887;28;20393;-70
2021/08/09 11:54:44;;;;;;;5.75;3.10;;;;;;;37.47;29.40;101136.63;5095314;28;20048;-72
2021/08/09 11:57:39;;;;;;;3.35;3.03;;;;;;;37.91;29.38;101120.16;5094806;28;20051;-71
2021/08/09 12:00:40;;;;;;;3.50;3.20;;;;;;;38.59;28.38;101117.75;5095426;28;20027;-70
2021/08/09 12:03:27;;;;;;;4.65;2.95;;;;;;;38.50;28.13;101119.75;5094838;28;20038;-71
2021/08/09 12:06:25;;;;;;;3.83;3.17;;;;;;;38.51;28.28;101116.00;5095436;28;20032;-70
2021/08/09 12:09:13;;;;;;;3.60;2.90;;;;;;;37.83;28.56;101123.00;5094978;28;20093;-70
2021/08/09 12:12:01;;;;;;;4.63;3.42;;;;;;;38.44;29.23;101114.19;5094885;28;20107;-71
2021/08/09 12:14:59;;;;;;;3.20;2.90;;;;;;;37.87;29.21;101116.97;5095223;28;20020;-70
2021/08/09 12:18:07;;;;;;;7.95;3.30;;;;;;;38.39;29.91;101120.28;5094813;28;20124;-70
2021/08/09 12:21:12;;;;;;;5.32;2.90;;;;;;;38.68;28.54;101111.91;5095646;28;20055;-71
2021/08/09 12:23:59;;;;;;;3.50;3.20;;;;;;;38.37;27.79;101107.84;5095419;28;20093;-72
2021/08/09 12:26:45;;;;;;;3.72;3.35;;;;;;;38.28;27.93;101098.91;5095470;28;20177;-71
2021/08/09 12:29:31;;;;;;;4.57;3.30;;;;;;;38.13;28.71;101102.75;5094447;28;20024;-71
2021/08/09 12:32:17;;;;;;;6.43;3.20;;;;;;;38.16;28.68;101102.34;5095322;28;20031;-70
2021/08/09 12:35:07;;;;;;;6.30;3.05;;;;;;;38.21;28.30;101097.97;5094714;28;20024;-70
2021/08/09 12:37:56;;;;;;;5.15;3.33;;;;;;;38.49;28.37;101096.16;5095176;28;20056;-71
2021/08/09 12:40:45;;;;;;;6.55;3.10;;;;;;;38.59;28.65;101091.22;5095001;28;20031;-71
2021/08/09 12:43:31;;;;;;;4.82;3.13;;;;;;;38.00;28.69;101083.41;5094174;28;20028;-71
2021/08/09 12:46:17;;;;;;;4.25;3.28;;;;;;;38.11;28.44;101075.56;5094086;28;20161;-71
2021/08/09 12:55:20;;;;;;;4.43;3.58;;;;;;;38.89;28.29;101073.50;5418502;22;20061;-71
2021/08/09 12:58:06;;;;;;;6.43;4.00;;;;;;;38.82;27.87;101074.50;5033435;28;20100;-72
2021/08/09 13:00:52;;;;;;;7.78;5.70;;;;;;;38.39;28.54;101071.00;5032636;28;20032;-70
2021/08/09 13:03:38;;;;;;;4.10;2.95;;;;;;;37.76;28.70;101072.88;5034121;28;20025;-70
2021/08/09 13:06:24;;;;;;;4.47;3.15;;;;;;;37.48;29.17;101075.44;5033420;28;20033;-71